sensor_id;sensor_type;location;lat;lon;timestamp;P1;durP1;ratioP1;P2;durP2;ratioP2
11927;SDS011;6023;47.070;15.126;2022-11-24T00:01:18;9.50;;;6.97;;
11927;SDS011;6023;47.070;15.126;2022-11-24T00:03:51;9.53;;;6.93;;
11927;SDS011;6023;47.070;15.126;2022-11-24T00:06:21;10.57;;;7.20;;
11927;SDS011;6023;47.070;15.126;2022-11-24T00:08:51;10.67;;;7.73;;
11927;SDS011;6023;47.070;15.126;2022-11-24T00:11:21;9.90;;;7.90;;
11927;SDS011;6023;47.070;15.126;2022-11-24T00:13:50;10.77;;;7.43;;
11927;SDS011;6023;47.070;15.126;2022-11-24T00:16:19;8.70;;;7.20;;
11927;SDS011;6023;47.070;15.126;2022-11-24T00:18:52;7.40;;;6.27;;
11927;SDS011;6023;47.070;15.126;2022-11-24T00:21:22;8.03;;;6.23;;
11927;SDS011;6023;47.070;15.126;2022-11-24T00:23:52;8.43;;;5.90;;
11927;SDS011;6023;47.070;15.126;2022-11-24T00:26:22;6.77;;;5.40;;
11927;SDS011;6023;47.070;15.126;2022-11-24T00:28:52;6.47;;;5.03;;
11927;SDS011;6023;47.070;15.126;2022-11-24T00:31:22;5.80;;;4.50;;
11927;SDS011;6023;47.070;15.126;2022-11-24T00:33:52;5.00;;;4.07;;
11927;SDS011;6023;47.070;15.126;2022-11-24T00:36:23;5.53;;;4.30;;
11927;SDS011;6023;47.070;15.126;2022-11-24T00:38:54;5.47;;;4.60;;
11927;SDS011;6023;47.070;15.126;2022-11-24T00:41:24;5.10;;;4.40;;
11927;SDS011;6023;47.070;15.126;2022-11-24T00:43:53;5.23;;;4.50;;
11927;SDS011;6023;47.070;15.126;2022-11-24T00:46:22;5.60;;;4.37;;
11927;SDS011;6023;47.070;15.126;2022-11-24T00:48:51;5.90;;;3.83;;
11927;SDS011;6023;47.070;15.126;2022-11-24T00:51:21;4.73;;;3.80;;
11927;SDS011;6023;47.070;15.126;2022-11-24T00:53:52;4.73;;;3.80;;
11927;SDS011;6023;47.070;15.126;2022-11-24T00:56:22;4.50;;;3.50;;
11927;SDS011;6023;47.070;15.126;2022-11-24T00:58:51;4.60;;;3.60;;
11927;SDS011;6023;47.070;15.126;2022-11-24T01:01:20;5.30;;;3.93;;
11927;SDS011;6023;47.070;15.126;2022-11-24T01:03:50;5.90;;;4.50;;
11927;SDS011;6023;47.070;15.126;2022-11-24T01:06:20;6.53;;;5.03;;
11927;SDS011;6023;47.070;15.126;2022-11-24T01:08:54;8.73;;;5.67;;
11927;SDS011;6023;47.070;15.126;2022-11-24T01:11:24;7.33;;;5.73;;
11927;SDS011;6023;47.070;15.126;2022-11-24T01:13:55;7.77;;;5.50;;
11927;SDS011;6023;47.070;15.126;2022-11-24T01:16:25;8.87;;;6.00;;
11927;SDS011;6023;47.070;15.126;2022-11-24T01:18:55;7.23;;;5.50;;
11927;SDS011;6023;47.070;15.126;2022-11-24T01:21:24;7.87;;;5.80;;
11927;SDS011;6023;47.070;15.126;2022-11-24T01:23:54;6.90;;;5.30;;
11927;SDS011;6023;47.070;15.126;2022-11-24T01:26:23;6.43;;;5.30;;
11927;SDS011;6023;47.070;15.126;2022-11-24T01:28:52;7.23;;;5.60;;
11927;SDS011;6023;47.070;15.126;2022-11-24T01:31:22;6.43;;;5.03;;
11927;SDS011;6023;47.070;15.126;2022-11-24T01:33:50;6.57;;;4.97;;
11927;SDS011;6023;47.070;15.126;2022-11-24T01:36:19;7.33;;;5.53;;
11927;SDS011;6023;47.070;15.126;2022-11-24T01:38:48;8.10;;;6.00;;
11927;SDS011;6023;47.070;15.126;2022-11-24T01:41:18;7.10;;;5.57;;
11927;SDS011;6023;47.070;15.126;2022-11-24T01:43:48;7.10;;;5.37;;
11927;SDS011;6023;47.070;15.126;2022-11-24T01:46:18;6.90;;;5.20;;
11927;SDS011;6023;47.070;15.126;2022-11-24T01:48:51;7.07;;;5.30;;
11927;SDS011;6023;47.070;15.126;2022-11-24T01:51:23;6.03;;;4.80;;
11927;SDS011;6023;47.070;15.126;2022-11-24T01:53:55;6.77;;;5.53;;
11927;SDS011;6023;47.070;15.126;2022-11-24T01:56:27;6.40;;;5.40;;
11927;SDS011;6023;47.070;15.126;2022-11-24T01:58:58;6.97;;;5.03;;
11927;SDS011;6023;47.070;15.126;2022-11-24T02:01:30;6.23;;;5.00;;
11927;SDS011;6023;47.070;15.126;2022-11-24T02:03:59;6.23;;;4.90;;
11927;SDS011;6023;47.070;15.126;2022-11-24T02:06:29;6.07;;;4.77;;
11927;SDS011;6023;47.070;15.126;2022-11-24T02:08:59;6.73;;;5.20;;
11927;SDS011;6023;47.070;15.126;2022-11-24T02:11:34;6.17;;;4.90;;
11927;SDS011;6023;47.070;15.126;2022-11-24T02:14:04;5.77;;;4.77;;
11927;SDS011;6023;47.070;15.126;2022-11-24T02:16:35;5.33;;;4.37;;
11927;SDS011;6023;47.070;15.126;2022-11-24T02:19:25;5.53;;;4.13;;
11927;SDS011;6023;47.070;15.126;2022-11-24T02:21:59;6.17;;;4.43;;
11927;SDS011;6023;47.070;15.126;2022-11-24T02:24:30;6.50;;;5.00;;
11927;SDS011;6023;47.070;15.126;2022-11-24T02:27:05;5.73;;;4.83;;
11927;SDS011;6023;47.070;15.126;2022-11-24T02:29:33;8.50;;;5.50;;
11927;SDS011;6023;47.070;15.126;2022-11-24T02:32:02;5.60;;;4.30;;
11927;SDS011;6023;47.070;15.126;2022-11-24T02:34:32;5.53;;;3.63;;
11927;SDS011;6023;47.070;15.126;2022-11-24T02:37:01;4.13;;;3.43;;
11927;SDS011;6023;47.070;15.126;2022-11-24T02:39:29;4.60;;;3.60;;
11927;SDS011;6023;47.070;15.126;2022-11-24T02:41:59;4.07;;;3.27;;
11927;SDS011;6023;47.070;15.126;2022-11-24T02:44:33;3.90;;;3.10;;
11927;SDS011;6023;47.070;15.126;2022-11-24T02:47:04;3.77;;;3.03;;
11927;SDS011;6023;47.070;15.126;2022-11-24T02:49:33;4.70;;;3.37;;
11927;SDS011;6023;47.070;15.126;2022-11-24T02:52:02;3.23;;;2.93;;
11927;SDS011;6023;47.070;15.126;2022-11-24T02:54:31;3.90;;;3.37;;
11927;SDS011;6023;47.070;15.126;2022-11-24T02:57:00;3.63;;;2.90;;
11927;SDS011;6023;47.070;15.126;2022-11-24T02:59:28;3.93;;;3.00;;
11927;SDS011;6023;47.070;15.126;2022-11-24T03:01:58;3.50;;;2.80;;
11927;SDS011;6023;47.070;15.126;2022-11-24T03:04:27;3.03;;;2.63;;
11927;SDS011;6023;47.070;15.126;2022-11-24T03:06:55;3.57;;;2.60;;
11927;SDS011;6023;47.070;15.126;2022-11-24T03:09:24;4.00;;;2.90;;
11927;SDS011;6023;47.070;15.126;2022-11-24T03:11:52;2.67;;;2.47;;
11927;SDS011;6023;47.070;15.126;2022-11-24T03:14:21;3.17;;;2.60;;
11927;SDS011;6023;47.070;15.126;2022-11-24T03:16:49;3.40;;;2.50;;
11927;SDS011;6023;47.070;15.126;2022-11-24T03:19:19;3.80;;;2.63;;
11927;SDS011;6023;47.070;15.126;2022-11-24T03:21:48;2.93;;;2.50;;
11927;SDS011;6023;47.070;15.126;2022-11-24T03:24:16;3.00;;;2.70;;
11927;SDS011;6023;47.070;15.126;2022-11-24T03:26:45;3.43;;;2.50;;
11927;SDS011;6023;47.070;15.126;2022-11-24T03:29:14;2.70;;;2.27;;
11927;SDS011;6023;47.070;15.126;2022-11-24T03:31:42;2.97;;;2.40;;
11927;SDS011;6023;47.070;15.126;2022-11-24T03:34:11;2.40;;;2.03;;
11927;SDS011;6023;47.070;15.126;2022-11-24T03:36:41;2.40;;;2.17;;
11927;SDS011;6023;47.070;15.126;2022-11-24T03:39:09;2.83;;;2.10;;
11927;SDS011;6023;47.070;15.126;2022-11-24T03:41:38;3.00;;;2.30;;
11927;SDS011;6023;47.070;15.126;2022-11-24T03:44:06;2.07;;;1.87;;
11927;SDS011;6023;47.070;15.126;2022-11-24T03:46:35;2.20;;;2.00;;
11927;SDS011;6023;47.070;15.126;2022-11-24T03:49:03;2.70;;;2.30;;
11927;SDS011;6023;47.070;15.126;2022-11-24T03:51:32;2.80;;;2.10;;
11927;SDS011;6023;47.070;15.126;2022-11-24T03:54:02;3.63;;;2.20;;
11927;SDS011;6023;47.070;15.126;2022-11-24T03:56:30;2.40;;;2.20;;
11927;SDS011;6023;47.070;15.126;2022-11-24T03:58:59;2.70;;;2.17;;
11927;SDS011;6023;47.070;15.126;2022-11-24T04:01:27;3.03;;;2.60;;
11927;SDS011;6023;47.070;15.126;2022-11-24T04:03:58;5.27;;;3.77;;
11927;SDS011;6023;47.070;15.126;2022-11-24T04:06:26;7.20;;;5.03;;
11927;SDS011;6023;47.070;15.126;2022-11-24T04:08:55;7.27;;;5.03;;
11927;SDS011;6023;47.070;15.126;2022-11-24T04:11:25;6.87;;;5.00;;
11927;SDS011;6023;47.070;15.126;2022-11-24T04:14:11;3.30;;;3.00;;
11927;SDS011;6023;47.070;15.126;2022-11-24T04:16:39;3.83;;;2.50;;
11927;SDS011;6023;47.070;15.126;2022-11-24T04:19:08;3.00;;;2.67;;
11927;SDS011;6023;47.070;15.126;2022-11-24T04:21:36;3.60;;;2.90;;
11927;SDS011;6023;47.070;15.126;2022-11-24T04:24:05;4.20;;;2.80;;
11927;SDS011;6023;47.070;15.126;2022-11-24T04:26:35;3.13;;;2.80;;
11927;SDS011;6023;47.070;15.126;2022-11-24T04:29:04;3.70;;;2.60;;
11927;SDS011;6023;47.070;15.126;2022-11-24T04:31:32;3.07;;;2.50;;
11927;SDS011;6023;47.070;15.126;2022-11-24T04:34:03;2.50;;;2.30;;
11927;SDS011;6023;47.070;15.126;2022-11-24T04:36:31;5.03;;;2.40;;
11927;SDS011;6023;47.070;15.126;2022-11-24T04:39:00;2.40;;;2.13;;
11927;SDS011;6023;47.070;15.126;2022-11-24T04:41:50;2.90;;;2.20;;
11927;SDS011;6023;47.070;15.126;2022-11-24T04:44:18;3.57;;;2.40;;
11927;SDS011;6023;47.070;15.126;2022-11-24T04:46:47;3.47;;;2.10;;
11927;SDS011;6023;47.070;15.126;2022-11-24T04:49:16;2.40;;;2.20;;
11927;SDS011;6023;47.070;15.126;2022-11-24T04:51:45;2.57;;;2.20;;
11927;SDS011;6023;47.070;15.126;2022-11-24T04:54:13;2.27;;;2.00;;
11927;SDS011;6023;47.070;15.126;2022-11-24T04:56:42;2.43;;;1.97;;
11927;SDS011;6023;47.070;15.126;2022-11-24T04:59:13;3.60;;;2.47;;
11927;SDS011;6023;47.070;15.126;2022-11-24T05:01:41;3.37;;;2.60;;
11927;SDS011;6023;47.070;15.126;2022-11-24T05:04:11;2.70;;;2.27;;
11927;SDS011;6023;47.070;15.126;2022-11-24T05:06:40;3.17;;;2.87;;
11927;SDS011;6023;47.070;15.126;2022-11-24T05:09:09;4.90;;;3.77;;
11927;SDS011;6023;47.070;15.126;2022-11-24T05:11:41;40.13;;;25.07;;
11927;SDS011;6023;47.070;15.126;2022-11-24T05:14:10;65.47;;;39.50;;
11927;SDS011;6023;47.070;15.126;2022-11-24T05:16:40;18.53;;;11.90;;
11927;SDS011;6023;47.070;15.126;2022-11-24T05:19:10;33.47;;;19.97;;
11927;SDS011;6023;47.070;15.126;2022-11-24T05:21:38;48.87;;;27.50;;
11927;SDS011;6023;47.070;15.126;2022-11-24T05:24:08;42.53;;;23.17;;
11927;SDS011;6023;47.070;15.126;2022-11-24T05:26:37;50.97;;;29.07;;
11927;SDS011;6023;47.070;15.126;2022-11-24T05:29:05;59.30;;;34.07;;
11927;SDS011;6023;47.070;15.126;2022-11-24T05:31:34;34.50;;;18.90;;
11927;SDS011;6023;47.070;15.126;2022-11-24T05:34:04;23.63;;;13.70;;
11927;SDS011;6023;47.070;15.126;2022-11-24T05:36:32;42.57;;;23.83;;
11927;SDS011;6023;47.070;15.126;2022-11-24T05:39:19;36.17;;;19.03;;
11927;SDS011;6023;47.070;15.126;2022-11-24T05:41:48;26.27;;;15.63;;
11927;SDS011;6023;47.070;15.126;2022-11-24T05:44:16;26.67;;;14.93;;
11927;SDS011;6023;47.070;15.126;2022-11-24T05:46:45;24.00;;;13.70;;
11927;SDS011;6023;47.070;15.126;2022-11-24T05:49:15;17.37;;;10.77;;
11927;SDS011;6023;47.070;15.126;2022-11-24T05:51:43;10.80;;;6.67;;
11927;SDS011;6023;47.070;15.126;2022-11-24T05:54:12;6.30;;;4.73;;
11927;SDS011;6023;47.070;15.126;2022-11-24T05:56:40;6.33;;;4.10;;
11927;SDS011;6023;47.070;15.126;2022-11-24T05:59:09;5.60;;;3.57;;
11927;SDS011;6023;47.070;15.126;2022-11-24T06:01:37;4.13;;;3.30;;
11927;SDS011;6023;47.070;15.126;2022-11-24T06:04:06;4.90;;;3.10;;
11927;SDS011;6023;47.070;15.126;2022-11-24T06:06:36;4.03;;;3.37;;
11927;SDS011;6023;47.070;15.126;2022-11-24T06:09:04;5.83;;;4.40;;
11927;SDS011;6023;47.070;15.126;2022-11-24T06:11:33;5.87;;;4.20;;
11927;SDS011;6023;47.070;15.126;2022-11-24T06:14:02;4.93;;;3.70;;
11927;SDS011;6023;47.070;15.126;2022-11-24T06:16:36;6.90;;;4.80;;
11927;SDS011;6023;47.070;15.126;2022-11-24T06:19:05;10.03;;;6.10;;
11927;SDS011;6023;47.070;15.126;2022-11-24T06:21:33;8.93;;;5.50;;
11927;SDS011;6023;47.070;15.126;2022-11-24T06:24:04;8.93;;;5.30;;
11927;SDS011;6023;47.070;15.126;2022-11-24T06:26:33;8.17;;;5.30;;
11927;SDS011;6023;47.070;15.126;2022-11-24T06:29:01;7.37;;;3.97;;
11927;SDS011;6023;47.070;15.126;2022-11-24T06:31:30;5.23;;;3.53;;
11927;SDS011;6023;47.070;15.126;2022-11-24T06:33:58;9.43;;;7.53;;
11927;SDS011;6023;47.070;15.126;2022-11-24T06:36:27;11.97;;;8.83;;
11927;SDS011;6023;47.070;15.126;2022-11-24T06:38:57;16.20;;;11.10;;
11927;SDS011;6023;47.070;15.126;2022-11-24T06:41:27;16.20;;;11.03;;
11927;SDS011;6023;47.070;15.126;2022-11-24T06:43:56;21.50;;;13.47;;
11927;SDS011;6023;47.070;15.126;2022-11-24T06:46:25;19.57;;;13.43;;
11927;SDS011;6023;47.070;15.126;2022-11-24T06:48:53;22.83;;;16.33;;
11927;SDS011;6023;47.070;15.126;2022-11-24T06:51:22;41.07;;;28.63;;
11927;SDS011;6023;47.070;15.126;2022-11-24T06:53:51;32.80;;;22.47;;
11927;SDS011;6023;47.070;15.126;2022-11-24T06:56:21;32.27;;;21.57;;
11927;SDS011;6023;47.070;15.126;2022-11-24T06:58:50;14.90;;;9.60;;
11927;SDS011;6023;47.070;15.126;2022-11-24T07:01:20;12.93;;;8.33;;
11927;SDS011;6023;47.070;15.126;2022-11-24T07:03:49;14.63;;;9.63;;
11927;SDS011;6023;47.070;15.126;2022-11-24T07:06:19;10.97;;;7.10;;
11927;SDS011;6023;47.070;15.126;2022-11-24T07:08:48;8.23;;;6.53;;
11927;SDS011;6023;47.070;15.126;2022-11-24T07:11:17;15.03;;;6.20;;
11927;SDS011;6023;47.070;15.126;2022-11-24T07:13:48;5.83;;;4.40;;
11927;SDS011;6023;47.070;15.126;2022-11-24T07:16:25;6.57;;;4.00;;
11927;SDS011;6023;47.070;15.126;2022-11-24T07:18:54;29.50;;;19.17;;
11927;SDS011;6023;47.070;15.126;2022-11-24T07:21:23;37.80;;;24.90;;
11927;SDS011;6023;47.070;15.126;2022-11-24T07:23:52;25.40;;;18.53;;
11927;SDS011;6023;47.070;15.126;2022-11-24T07:26:22;13.20;;;10.27;;
11927;SDS011;6023;47.070;15.126;2022-11-24T07:28:52;10.97;;;8.40;;
11927;SDS011;6023;47.070;15.126;2022-11-24T07:31:21;6.47;;;5.53;;
11927;SDS011;6023;47.070;15.126;2022-11-24T07:33:52;6.47;;;5.23;;
11927;SDS011;6023;47.070;15.126;2022-11-24T07:36:21;22.40;;;14.60;;
11927;SDS011;6023;47.070;15.126;2022-11-24T07:38:50;26.83;;;18.43;;
11927;SDS011;6023;47.070;15.126;2022-11-24T07:41:18;27.33;;;19.00;;
11927;SDS011;6023;47.070;15.126;2022-11-24T07:43:47;17.93;;;13.67;;
11927;SDS011;6023;47.070;15.126;2022-11-24T07:46:18;14.90;;;10.83;;
11927;SDS011;6023;47.070;15.126;2022-11-24T07:48:47;17.97;;;10.70;;
11927;SDS011;6023;47.070;15.126;2022-11-24T07:51:15;15.17;;;9.70;;
11927;SDS011;6023;47.070;15.126;2022-11-24T07:53:44;16.67;;;10.90;;
11927;SDS011;6023;47.070;15.126;2022-11-24T07:56:13;32.17;;;22.43;;
11927;SDS011;6023;47.070;15.126;2022-11-24T07:58:41;53.07;;;34.80;;
11927;SDS011;6023;47.070;15.126;2022-11-24T08:01:19;20.60;;;13.67;;
11927;SDS011;6023;47.070;15.126;2022-11-24T08:03:48;16.60;;;10.03;;
11927;SDS011;6023;47.070;15.126;2022-11-24T08:06:17;14.40;;;9.70;;
11927;SDS011;6023;47.070;15.126;2022-11-24T08:08:56;13.53;;;9.90;;
11927;SDS011;6023;47.070;15.126;2022-11-24T08:11:25;12.37;;;9.73;;
11927;SDS011;6023;47.070;15.126;2022-11-24T08:13:53;12.57;;;8.93;;
11927;SDS011;6023;47.070;15.126;2022-11-24T08:16:23;7.57;;;6.00;;
11927;SDS011;6023;47.070;15.126;2022-11-24T08:18:53;8.63;;;5.90;;
11927;SDS011;6023;47.070;15.126;2022-11-24T08:21:22;9.07;;;7.13;;
11927;SDS011;6023;47.070;15.126;2022-11-24T08:23:52;12.07;;;7.63;;
11927;SDS011;6023;47.070;15.126;2022-11-24T08:26:22;24.37;;;18.07;;
11927;SDS011;6023;47.070;15.126;2022-11-24T08:28:52;11.20;;;8.07;;
11927;SDS011;6023;47.070;15.126;2022-11-24T08:31:21;14.30;;;12.10;;
11927;SDS011;6023;47.070;15.126;2022-11-24T08:33:53;19.83;;;15.60;;
11927;SDS011;6023;47.070;15.126;2022-11-24T08:36:22;24.37;;;14.17;;
11927;SDS011;6023;47.070;15.126;2022-11-24T08:38:52;14.87;;;9.60;;
11927;SDS011;6023;47.070;15.126;2022-11-24T08:41:21;15.63;;;9.63;;
11927;SDS011;6023;47.070;15.126;2022-11-24T08:43:50;14.07;;;9.13;;
11927;SDS011;6023;47.070;15.126;2022-11-24T08:46:19;12.90;;;9.40;;
11927;SDS011;6023;47.070;15.126;2022-11-24T08:48:49;15.00;;;10.20;;
11927;SDS011;6023;47.070;15.126;2022-11-24T08:51:19;13.83;;;9.30;;
11927;SDS011;6023;47.070;15.126;2022-11-24T08:53:52;12.47;;;9.27;;
11927;SDS011;6023;47.070;15.126;2022-11-24T08:56:21;11.90;;;9.03;;
11927;SDS011;6023;47.070;15.126;2022-11-24T08:58:49;13.63;;;9.63;;
11927;SDS011;6023;47.070;15.126;2022-11-24T09:01:18;15.70;;;9.37;;
11927;SDS011;6023;47.070;15.126;2022-11-24T09:03:47;14.93;;;9.47;;
11927;SDS011;6023;47.070;15.126;2022-11-24T09:06:18;16.07;;;10.83;;
11927;SDS011;6023;47.070;15.126;2022-11-24T09:08:50;22.20;;;15.73;;
11927;SDS011;6023;47.070;15.126;2022-11-24T09:11:19;15.53;;;10.70;;
11927;SDS011;6023;47.070;15.126;2022-11-24T09:13:47;12.13;;;8.13;;
11927;SDS011;6023;47.070;15.126;2022-11-24T09:16:17;10.23;;;6.93;;
11927;SDS011;6023;47.070;15.126;2022-11-24T09:18:46;11.60;;;7.40;;
11927;SDS011;6023;47.070;15.126;2022-11-24T09:21:17;56.43;;;37.00;;
11927;SDS011;6023;47.070;15.126;2022-11-24T09:23:47;47.70;;;35.07;;
11927;SDS011;6023;47.070;15.126;2022-11-24T09:26:17;12.57;;;9.63;;
11927;SDS011;6023;47.070;15.126;2022-11-24T09:28:46;12.23;;;7.33;;
11927;SDS011;6023;47.070;15.126;2022-11-24T09:31:15;10.13;;;6.93;;
11927;SDS011;6023;47.070;15.126;2022-11-24T09:33:44;9.40;;;6.50;;
11927;SDS011;6023;47.070;15.126;2022-11-24T09:36:13;11.67;;;7.10;;
11927;SDS011;6023;47.070;15.126;2022-11-24T09:38:43;8.30;;;6.50;;
11927;SDS011;6023;47.070;15.126;2022-11-24T09:41:24;9.30;;;5.83;;
11927;SDS011;6023;47.070;15.126;2022-11-24T09:44:00;11.13;;;7.23;;
11927;SDS011;6023;47.070;15.126;2022-11-24T09:46:35;9.07;;;5.87;;
11927;SDS011;6023;47.070;15.126;2022-11-24T09:49:11;7.83;;;5.90;;
11927;SDS011;6023;47.070;15.126;2022-11-24T09:51:45;18.47;;;12.73;;
11927;SDS011;6023;47.070;15.126;2022-11-24T09:54:17;31.43;;;19.27;;
11927;SDS011;6023;47.070;15.126;2022-11-24T09:56:47;34.10;;;20.23;;
11927;SDS011;6023;47.070;15.126;2022-11-24T09:59:17;34.13;;;21.93;;
11927;SDS011;6023;47.070;15.126;2022-11-24T10:01:48;23.53;;;14.10;;
11927;SDS011;6023;47.070;15.126;2022-11-24T10:04:18;18.70;;;11.77;;
11927;SDS011;6023;47.070;15.126;2022-11-24T10:06:50;17.20;;;9.80;;
11927;SDS011;6023;47.070;15.126;2022-11-24T10:09:30;11.33;;;6.63;;
11927;SDS011;6023;47.070;15.126;2022-11-24T10:12:10;25.53;;;15.13;;
11927;SDS011;6023;47.070;15.126;2022-11-24T10:14:55;20.90;;;11.10;;
11927;SDS011;6023;47.070;15.126;2022-11-24T10:17:30;25.80;;;14.90;;
11927;SDS011;6023;47.070;15.126;2022-11-24T10:20:25;20.93;;;12.60;;
11927;SDS011;6023;47.070;15.126;2022-11-24T10:23:00;24.53;;;15.33;;
11927;SDS011;6023;47.070;15.126;2022-11-24T10:25:41;21.90;;;12.57;;
11927;SDS011;6023;47.070;15.126;2022-11-24T10:28:14;10.00;;;6.80;;
11927;SDS011;6023;47.070;15.126;2022-11-24T10:30:43;16.83;;;12.73;;
11927;SDS011;6023;47.070;15.126;2022-11-24T10:33:14;9.60;;;7.20;;
11927;SDS011;6023;47.070;15.126;2022-11-24T10:35:45;15.23;;;10.07;;
11927;SDS011;6023;47.070;15.126;2022-11-24T10:38:19;10.77;;;5.90;;
11927;SDS011;6023;47.070;15.126;2022-11-24T10:40:55;16.97;;;9.70;;
11927;SDS011;6023;47.070;15.126;2022-11-24T10:43:26;10.43;;;5.60;;
11927;SDS011;6023;47.070;15.126;2022-11-24T10:45:55;9.23;;;5.60;;
11927;SDS011;6023;47.070;15.126;2022-11-24T10:48:27;6.60;;;3.93;;
11927;SDS011;6023;47.070;15.126;2022-11-24T10:51:00;8.70;;;5.80;;
11927;SDS011;6023;47.070;15.126;2022-11-24T10:53:42;4.97;;;3.80;;
11927;SDS011;6023;47.070;15.126;2022-11-24T10:56:13;8.10;;;5.70;;
11927;SDS011;6023;47.070;15.126;2022-11-24T10:58:41;8.03;;;5.37;;
11927;SDS011;6023;47.070;15.126;2022-11-24T11:01:19;10.83;;;5.37;;
11927;SDS011;6023;47.070;15.126;2022-11-24T11:03:51;15.13;;;8.00;;
11927;SDS011;6023;47.070;15.126;2022-11-24T11:06:22;11.13;;;6.43;;
11927;SDS011;6023;47.070;15.126;2022-11-24T11:09:10;7.87;;;4.47;;
11927;SDS011;6023;47.070;15.126;2022-11-24T11:11:46;6.27;;;3.17;;
11927;SDS011;6023;47.070;15.126;2022-11-24T11:14:27;5.13;;;3.00;;
11927;SDS011;6023;47.070;15.126;2022-11-24T11:16:56;3.20;;;2.00;;
11927;SDS011;6023;47.070;15.126;2022-11-24T11:19:30;5.70;;;2.40;;
11927;SDS011;6023;47.070;15.126;2022-11-24T11:22:23;5.00;;;2.80;;
11927;SDS011;6023;47.070;15.126;2022-11-24T11:25:01;6.17;;;2.37;;
11927;SDS011;6023;47.070;15.126;2022-11-24T11:27:33;2.10;;;1.20;;
11927;SDS011;6023;47.070;15.126;2022-11-24T11:30:15;1.53;;;1.03;;
11927;SDS011;6023;47.070;15.126;2022-11-24T11:33:16;2.83;;;1.20;;
11927;SDS011;6023;47.070;15.126;2022-11-24T11:36:07;3.60;;;1.60;;
11927;SDS011;6023;47.070;15.126;2022-11-24T11:38:37;3.40;;;1.20;;
11927;SDS011;6023;47.070;15.126;2022-11-24T11:41:07;2.10;;;1.13;;
11927;SDS011;6023;47.070;15.126;2022-11-24T11:43:41;1.00;;;0.67;;
11927;SDS011;6023;47.070;15.126;2022-11-24T11:46:11;3.73;;;1.30;;
11927;SDS011;6023;47.070;15.126;2022-11-24T11:48:43;2.10;;;1.67;;
11927;SDS011;6023;47.070;15.126;2022-11-24T11:51:21;5.87;;;4.00;;
11927;SDS011;6023;47.070;15.126;2022-11-24T11:53:59;4.57;;;3.40;;
11927;SDS011;6023;47.070;15.126;2022-11-24T11:56:33;3.10;;;2.37;;
11927;SDS011;6023;47.070;15.126;2022-11-24T11:59:15;4.50;;;2.20;;
11927;SDS011;6023;47.070;15.126;2022-11-24T12:02:14;4.40;;;1.30;;
11927;SDS011;6023;47.070;15.126;2022-11-24T12:04:52;3.73;;;3.00;;
11927;SDS011;6023;47.070;15.126;2022-11-24T12:07:25;4.70;;;3.63;;
11927;SDS011;6023;47.070;15.126;2022-11-24T12:10:07;7.50;;;6.80;;
11927;SDS011;6023;47.070;15.126;2022-11-24T12:12:48;4.10;;;2.70;;
11927;SDS011;6023;47.070;15.126;2022-11-24T12:15:26;4.57;;;3.20;;
11927;SDS011;6023;47.070;15.126;2022-11-24T12:18:01;2.23;;;1.40;;
11927;SDS011;6023;47.070;15.126;2022-11-24T12:21:01;5.37;;;4.87;;
11927;SDS011;6023;47.070;15.126;2022-11-24T12:23:37;2.23;;;1.80;;
11927;SDS011;6023;47.070;15.126;2022-11-24T12:26:12;3.67;;;2.47;;
11927;SDS011;6023;47.070;15.126;2022-11-24T12:28:48;3.03;;;2.40;;
11927;SDS011;6023;47.070;15.126;2022-11-24T12:31:24;5.50;;;3.77;;
11927;SDS011;6023;47.070;15.126;2022-11-24T12:36:56;2.57;;;2.00;;
11927;SDS011;6023;47.070;15.126;2022-11-24T12:39:34;3.13;;;2.43;;
11927;SDS011;6023;47.070;15.126;2022-11-24T12:42:20;8.17;;;5.30;;
11927;SDS011;6023;47.070;15.126;2022-11-24T12:45:03;2.33;;;1.80;;
11927;SDS011;6023;47.070;15.126;2022-11-24T12:47:53;8.13;;;6.40;;
11927;SDS011;6023;47.070;15.126;2022-11-24T12:50:31;4.73;;;3.20;;
11927;SDS011;6023;47.070;15.126;2022-11-24T12:53:04;2.67;;;1.80;;
11927;SDS011;6023;47.070;15.126;2022-11-24T12:55:37;4.10;;;3.00;;
11927;SDS011;6023;47.070;15.126;2022-11-24T12:58:08;1.93;;;1.43;;
11927;SDS011;6023;47.070;15.126;2022-11-24T13:00:42;2.70;;;1.90;;
11927;SDS011;6023;47.070;15.126;2022-11-24T13:03:26;3.87;;;3.23;;
11927;SDS011;6023;47.070;15.126;2022-11-24T13:06:02;4.53;;;2.90;;
11927;SDS011;6023;47.070;15.126;2022-11-24T13:08:34;2.73;;;2.10;;
11927;SDS011;6023;47.070;15.126;2022-11-24T13:13:55;2.83;;;2.20;;
11927;SDS011;6023;47.070;15.126;2022-11-24T13:16:25;2.50;;;2.03;;
11927;SDS011;6023;47.070;15.126;2022-11-24T13:19:11;3.83;;;2.50;;
11927;SDS011;6023;47.070;15.126;2022-11-24T13:21:45;2.50;;;1.90;;
11927;SDS011;6023;47.070;15.126;2022-11-24T13:24:32;7.37;;;5.80;;
11927;SDS011;6023;47.070;15.126;2022-11-24T13:33:35;1.60;;;1.50;;
11927;SDS011;6023;47.070;15.126;2022-11-24T13:39:03;1.17;;;0.93;;
11927;SDS011;6023;47.070;15.126;2022-11-24T13:44:56;1.63;;;1.53;;
11927;SDS011;6023;47.070;15.126;2022-11-24T13:47:29;6.20;;;4.37;;
11927;SDS011;6023;47.070;15.126;2022-11-24T13:50:00;6.30;;;5.57;;
11927;SDS011;6023;47.070;15.126;2022-11-24T13:55:27;13.13;;;11.57;;
11927;SDS011;6023;47.070;15.126;2022-11-24T13:58:03;5.50;;;3.67;;
11927;SDS011;6023;47.070;15.126;2022-11-24T14:00:59;5.00;;;3.27;;
11927;SDS011;6023;47.070;15.126;2022-11-24T14:03:30;3.60;;;2.70;;
11927;SDS011;6023;47.070;15.126;2022-11-24T14:06:01;3.93;;;3.20;;
11927;SDS011;6023;47.070;15.126;2022-11-24T14:08:31;3.30;;;2.50;;
11927;SDS011;6023;47.070;15.126;2022-11-24T14:11:02;6.37;;;4.40;;
11927;SDS011;6023;47.070;15.126;2022-11-24T14:13:31;5.57;;;4.10;;
11927;SDS011;6023;47.070;15.126;2022-11-24T14:16:02;3.07;;;2.73;;
11927;SDS011;6023;47.070;15.126;2022-11-24T14:18:32;4.57;;;2.90;;
11927;SDS011;6023;47.070;15.126;2022-11-24T14:21:13;3.03;;;2.40;;
11927;SDS011;6023;47.070;15.126;2022-11-24T14:23:50;2.93;;;2.13;;
11927;SDS011;6023;47.070;15.126;2022-11-24T14:26:20;3.97;;;2.40;;
11927;SDS011;6023;47.070;15.126;2022-11-24T14:28:50;5.07;;;3.60;;
11927;SDS011;6023;47.070;15.126;2022-11-24T14:31:20;4.37;;;3.53;;
11927;SDS011;6023;47.070;15.126;2022-11-24T14:34:05;7.90;;;6.40;;
11927;SDS011;6023;47.070;15.126;2022-11-24T14:36:36;7.50;;;5.67;;
11927;SDS011;6023;47.070;15.126;2022-11-24T14:39:06;13.00;;;9.03;;
11927;SDS011;6023;47.070;15.126;2022-11-24T14:41:39;18.67;;;15.20;;
11927;SDS011;6023;47.070;15.126;2022-11-24T14:44:13;23.57;;;18.10;;
11927;SDS011;6023;47.070;15.126;2022-11-24T14:46:44;35.90;;;25.07;;
11927;SDS011;6023;47.070;15.126;2022-11-24T14:49:16;16.20;;;11.73;;
11927;SDS011;6023;47.070;15.126;2022-11-24T14:51:47;8.77;;;5.80;;
11927;SDS011;6023;47.070;15.126;2022-11-24T14:54:20;8.07;;;5.27;;
11927;SDS011;6023;47.070;15.126;2022-11-24T14:56:57;10.80;;;4.40;;
11927;SDS011;6023;47.070;15.126;2022-11-24T14:59:28;9.03;;;4.70;;
11927;SDS011;6023;47.070;15.126;2022-11-24T15:01:57;13.73;;;4.83;;
11927;SDS011;6023;47.070;15.126;2022-11-24T15:04:26;11.63;;;6.10;;
11927;SDS011;6023;47.070;15.126;2022-11-24T15:07:18;21.00;;;11.73;;
11927;SDS011;6023;47.070;15.126;2022-11-24T15:09:53;15.70;;;9.57;;
11927;SDS011;6023;47.070;15.126;2022-11-24T15:12:25;12.37;;;7.70;;
11927;SDS011;6023;47.070;15.126;2022-11-24T15:14:57;11.37;;;7.70;;
11927;SDS011;6023;47.070;15.126;2022-11-24T15:17:28;11.90;;;7.70;;
11927;SDS011;6023;47.070;15.126;2022-11-24T15:19:57;11.63;;;7.50;;
11927;SDS011;6023;47.070;15.126;2022-11-24T15:22:34;19.47;;;13.67;;
11927;SDS011;6023;47.070;15.126;2022-11-24T15:27:56;22.93;;;16.87;;
11927;SDS011;6023;47.070;15.126;2022-11-24T15:30:25;21.67;;;16.47;;
11927;SDS011;6023;47.070;15.126;2022-11-24T15:32:54;20.57;;;12.20;;